createdAt,value
2023-01-09T00:02:21.605Z,17.60
2023-01-09T00:07:24.654Z,13.50
2023-01-09T00:12:27.762Z,8.70
2023-01-09T00:17:31.892Z,13.20
2023-01-09T00:22:34.896Z,18.60
2023-01-09T00:27:37.933Z,18.40
2023-01-09T00:32:41.524Z,13.00
2023-01-09T00:37:45.356Z,16.50
2023-01-09T00:42:54.668Z,14.30
2023-01-09T00:48:11.537Z,18.20
2023-01-09T00:53:20.535Z,16.70
2023-01-09T00:58:24.079Z,16.90
2023-01-09T01:03:28.317Z,16.90
2023-01-09T01:08:31.364Z,16.40
2023-01-09T01:13:34.434Z,14.20
2023-01-09T01:18:39.981Z,15.00
2023-01-09T01:23:43.707Z,13.10
2023-01-09T01:28:46.723Z,17.60
2023-01-09T01:33:49.921Z,14.20
2023-01-09T01:38:53.333Z,14.90
2023-01-09T01:44:07.664Z,15.50
2023-01-09T01:49:16.958Z,16.50
2023-01-09T01:54:26.576Z,18.30
2023-01-09T01:59:41.188Z,19.70
2023-01-09T02:04:45.526Z,18.90
2023-01-09T02:09:49.447Z,19.80
2023-01-09T02:15:14.880Z,13.90
2023-01-09T02:20:36.839Z,14.90
2023-01-09T02:26:13.624Z,12.20
2023-01-09T02:31:44.368Z,18.20
2023-01-09T02:37:22.709Z,20.30
2023-01-09T02:42:27.288Z,20.30
2023-01-09T02:47:30.260Z,16.70
2023-01-09T02:52:54.457Z,15.60
2023-01-09T02:58:12.109Z,12.50
2023-01-09T03:03:40.599Z,17.10
2023-01-09T03:08:50.603Z,17.70
2023-01-09T03:14:08.563Z,19.20
2023-01-09T03:19:19.275Z,15.50
2023-01-09T03:24:22.342Z,16.40
2023-01-09T03:29:25.421Z,12.60
2023-01-09T03:34:28.431Z,21.50
2023-01-09T03:39:33.068Z,21.90
2023-01-09T03:44:36.076Z,19.30
2023-01-09T03:49:39.826Z,10.30
2023-01-09T03:54:42.901Z,12.70
2023-01-09T03:59:45.916Z,15.80
2023-01-09T04:04:49.125Z,16.40
2023-01-09T04:09:52.036Z,17.70
2023-01-09T04:14:55.125Z,21.10
2023-01-09T04:20:00.249Z,18.50
2023-01-09T04:25:04.212Z,17.60
2023-01-09T04:30:09.132Z,13.40
2023-01-09T04:35:12.597Z,16.10
2023-01-09T04:40:15.769Z,19.30
2023-01-09T04:45:18.773Z,13.00
2023-01-09T04:50:21.881Z,21.20
2023-01-09T04:55:24.995Z,17.70
2023-01-09T05:00:28.498Z,19.80
2023-01-09T05:05:31.709Z,17.10
2023-01-09T05:10:34.730Z,17.80
2023-01-09T05:15:37.921Z,15.90
2023-01-09T05:20:40.927Z,19.50
2023-01-09T05:25:44.133Z,18.50
2023-01-09T05:30:48.370Z,16.60
2023-01-09T05:35:51.473Z,17.80
2023-01-09T05:40:54.580Z,16.10
2023-01-09T05:45:57.698Z,20.50
2023-01-09T05:51:01.108Z,16.20
2023-01-09T05:56:04.531Z,16.40
2023-01-09T06:01:08.273Z,15.00
2023-01-09T06:06:11.341Z,15.20
2023-01-09T06:11:14.465Z,18.80
2023-01-09T06:16:17.719Z,19.20
2023-01-09T06:21:21.017Z,18.20
2023-01-09T06:26:26.148Z,18.40
2023-01-09T06:31:29.410Z,17.30
2023-01-09T06:36:32.742Z,16.50
2023-01-09T06:41:35.859Z,17.60
2023-01-09T06:46:39.771Z,20.90
2023-01-09T06:51:42.876Z,14.40
2023-01-09T06:56:46.211Z,16.40
2023-01-09T07:01:49.389Z,10.00
2023-01-09T07:06:52.606Z,14.90
2023-01-09T07:11:55.814Z,20.20
2023-01-09T07:16:58.816Z,18.80
2023-01-09T07:22:01.836Z,20.50
2023-01-09T07:27:05.038Z,18.90
2023-01-09T07:32:08.446Z,15.90
2023-01-09T07:37:11.652Z,18.30
2023-01-09T07:42:15.792Z,8.70
2023-01-09T07:47:18.896Z,19.80
2023-01-09T07:52:22.208Z,18.30
2023-01-09T07:57:25.304Z,8.70
2023-01-09T08:02:28.603Z,17.30
2023-01-09T08:07:31.949Z,19.80
2023-01-09T08:12:35.139Z,24.40
2023-01-09T08:17:40.646Z,22.90
2023-01-09T08:22:50.895Z,18.00
2023-01-09T08:27:54.120Z,17.40
2023-01-09T08:32:57.297Z,18.70
2023-01-09T08:38:00.403Z,18.90
2023-01-09T08:43:24.000Z,18.20
2023-01-09T08:48:27.097Z,25.10
2023-01-09T08:53:31.647Z,14.00
2023-01-09T08:58:35.280Z,16.90
2023-01-09T09:03:38.362Z,21.60
2023-01-09T09:08:41.371Z,18.80
2023-01-09T09:13:44.673Z,16.10
2023-01-09T09:18:47.769Z,18.50
2023-01-09T09:23:50.797Z,21.10
2023-01-09T09:28:54.397Z,21.60
2023-01-09T09:33:57.606Z,17.40
2023-01-09T09:39:02.979Z,15.90
2023-01-09T09:44:48.335Z,15.10
2023-01-09T09:50:06.524Z,15.40
2023-01-09T09:55:27.558Z,14.70
2023-01-09T10:00:31.578Z,17.00
2023-01-09T10:05:39.958Z,19.40
2023-01-09T10:10:54.156Z,19.30
2023-01-09T10:16:07.999Z,19.60
2023-01-09T10:21:21.970Z,24.30
2023-01-09T10:26:48.639Z,18.60
2023-01-09T10:32:01.485Z,20.40
2023-01-09T10:37:20.370Z,13.90
2023-01-09T10:42:36.880Z,13.10
2023-01-09T10:47:43.323Z,16.30
2023-01-09T10:52:49.209Z,15.20
2023-01-09T10:58:02.534Z,13.00
2023-01-09T11:03:06.742Z,15.30
2023-01-09T11:08:09.721Z,16.80
2023-01-09T11:13:19.588Z,15.20
2023-01-09T11:18:25.104Z,13.00
2023-01-09T11:23:32.978Z,19.10
2023-01-09T11:28:36.173Z,20.40
2023-01-09T11:33:50.002Z,22.00
2023-01-09T11:38:57.085Z,14.20
2023-01-09T11:44:06.379Z,19.30
2023-01-09T11:49:12.671Z,20.80
2023-01-09T11:54:26.827Z,15.40
2023-01-09T11:59:31.669Z,14.00
2023-01-09T12:04:43.303Z,15.40
2023-01-09T12:10:01.352Z,20.80
2023-01-09T12:15:37.105Z,18.80
2023-01-09T12:21:21.189Z,23.00
2023-01-09T12:26:32.874Z,30.20
2023-01-09T12:32:07.005Z,27.30
2023-01-09T12:37:50.261Z,23.10
2023-01-09T12:43:03.615Z,24.30
2023-01-09T12:49:07.127Z,17.10
2023-01-09T12:54:19.661Z,16.80
2023-01-09T12:59:45.196Z,21.10
2023-01-09T13:05:07.152Z,39.00
2023-01-09T13:10:38.097Z,38.70
2023-01-09T13:15:45.991Z,31.30
2023-01-09T13:20:57.012Z,27.40
2023-01-09T13:26:07.053Z,30.60
2023-01-09T13:31:28.581Z,31.70
2023-01-09T13:36:40.675Z,23.20
2023-01-09T13:42:13.133Z,25.30
2023-01-09T13:47:22.141Z,34.10
2023-01-09T13:52:40.120Z,26.30
2023-01-09T13:58:06.026Z,23.30
2023-01-09T14:03:22.596Z,23.40
2023-01-09T14:08:31.691Z,19.60
2023-01-09T14:13:37.735Z,19.60
2023-01-09T14:18:53.621Z,22.00
2023-01-09T14:24:06.644Z,17.30
2023-01-09T14:29:29.496Z,21.60
2023-01-09T14:34:39.179Z,15.30
2023-01-09T14:39:46.534Z,17.80
2023-01-09T14:44:59.628Z,19.90
2023-01-09T14:50:37.966Z,19.60
2023-01-09T14:55:58.168Z,15.70
2023-01-09T15:01:07.085Z,18.40
2023-01-09T15:06:21.238Z,13.70
2023-01-09T15:11:26.080Z,19.00
2023-01-09T15:16:31.203Z,32.10
2023-01-09T15:21:34.385Z,20.30
2023-01-09T15:26:39.434Z,22.30
2023-01-09T15:31:47.118Z,20.60
2023-01-09T15:36:52.873Z,15.30
2023-01-09T15:42:15.378Z,17.40
2023-01-09T15:47:24.801Z,23.20
2023-01-09T15:52:28.246Z,19.60
2023-01-09T15:57:35.616Z,14.60
2023-01-09T16:03:04.681Z,16.50
2023-01-09T16:08:20.895Z,18.40
2023-01-09T16:13:28.023Z,24.40
2023-01-09T16:18:37.444Z,24.60
2023-01-09T16:24:12.306Z,21.40
2023-01-09T16:29:37.522Z,19.10
2023-01-09T16:34:44.295Z,23.50
2023-01-09T16:40:22.641Z,24.70
2023-01-09T16:45:31.624Z,21.80
2023-01-09T16:50:34.799Z,39.20
2023-01-09T16:55:38.919Z,36.30
2023-01-09T17:00:42.432Z,31.10
2023-01-09T17:05:56.674Z,34.10
2023-01-09T17:10:59.919Z,28.10
2023-01-09T17:16:05.020Z,36.40
2023-01-09T17:21:24.247Z,29.60
2023-01-09T17:26:46.298Z,26.80
2023-01-09T17:31:49.528Z,34.30
2023-01-09T17:36:55.790Z,42.00
2023-01-09T17:42:02.077Z,52.10
2023-01-09T17:47:06.323Z,38.70
2023-01-09T17:52:09.407Z,30.80
2023-01-09T17:57:17.623Z,33.10
2023-01-09T18:02:20.899Z,34.80
2023-01-09T18:07:24.064Z,35.20
2023-01-09T18:12:27.377Z,39.20
2023-01-09T18:17:30.572Z,33.10
2023-01-09T18:22:34.704Z,32.40
2023-01-09T18:27:39.675Z,34.60
2023-01-09T18:32:42.860Z,39.20
2023-01-09T18:37:45.972Z,30.90
2023-01-09T18:42:49.074Z,33.10
2023-01-09T18:47:52.802Z,34.70
2023-01-09T18:52:56.434Z,27.70
2023-01-09T18:57:59.620Z,23.90
2023-01-09T19:03:02.867Z,22.50
2023-01-09T19:08:06.951Z,29.60
2023-01-09T19:13:10.448Z,25.50
2023-01-09T19:18:16.941Z,22.50
2023-01-09T19:23:24.793Z,21.80
2023-01-09T19:28:27.984Z,30.10
2023-01-09T19:33:31.318Z,39.80
2023-01-09T19:38:34.421Z,31.60
2023-01-09T19:43:39.392Z,24.90
2023-01-09T19:48:43.691Z,21.60
2023-01-09T19:53:53.720Z,16.30
2023-01-09T19:59:01.037Z,20.30
2023-01-09T20:04:10.302Z,18.10
2023-01-09T20:09:18.175Z,24.20
2023-01-09T20:14:22.733Z,21.30
2023-01-09T20:19:26.697Z,23.10
2023-01-09T20:24:30.045Z,26.70
2023-01-09T20:29:34.426Z,26.60
2023-01-09T20:34:37.567Z,24.10
2023-01-09T20:39:40.762Z,16.00
2023-01-09T20:44:43.864Z,17.50
2023-01-09T20:49:47.229Z,15.70
2023-01-09T20:54:50.376Z,17.90
2023-01-09T20:59:53.541Z,19.40
2023-01-09T21:04:56.643Z,15.40
2023-01-09T21:10:00.133Z,18.60
2023-01-09T21:15:09.086Z,20.70
2023-01-09T21:20:15.250Z,12.70
2023-01-09T21:25:18.452Z,14.50
2023-01-09T21:30:21.869Z,20.80
2023-01-09T21:35:25.637Z,23.80
2023-01-09T21:40:29.092Z,22.10
2023-01-09T21:45:51.195Z,25.80
2023-01-09T21:50:54.350Z,22.70
2023-01-09T21:55:57.363Z,22.50
2023-01-09T22:01:00.931Z,21.70
2023-01-09T22:06:05.518Z,25.10
2023-01-09T22:11:08.585Z,24.10
2023-01-09T22:16:13.631Z,21.30
2023-01-09T22:21:17.792Z,22.70
2023-01-09T22:26:21.956Z,24.60
2023-01-09T22:31:28.620Z,23.80
2023-01-09T22:36:32.709Z,39.70
2023-01-09T22:41:35.872Z,23.70
2023-01-09T22:46:40.197Z,9.00
2023-01-09T22:51:44.014Z,23.40
2023-01-09T22:56:50.460Z,22.70
2023-01-09T23:01:54.582Z,22.10
2023-01-09T23:06:57.731Z,23.90
2023-01-09T23:12:04.026Z,20.50
2023-01-09T23:17:11.016Z,23.00
2023-01-09T23:22:14.329Z,19.20
2023-01-09T23:27:17.428Z,23.90
2023-01-09T23:32:20.540Z,11.80
2023-01-09T23:37:23.750Z,15.50
2023-01-09T23:42:45.793Z,22.00
2023-01-09T23:47:49.007Z,22.10
2023-01-09T23:52:52.112Z,20.50
2023-01-09T23:57:56.247Z,24.60
